Time;durP1;ratioP1;P1;durP2;ratioP2;P2;SDS_P1;SDS_P2;PMS_P1;PMS_P2;Temp;Humidity;BMP_temperature;BMP_pressure;BME280_temperature;BME280_humidity;BME280_pressure;Samples;Min_cycle;Max_cycle;Signal;HPM_P1;HPM_P2
2022/11/28 00:00:53;;;;;;;;;;;;;;;;;;4993507;28;1323;-72
2022/11/28 00:03:21;;;;;;;;;;;;;;;;;;5010078;28;1914;-72
2022/11/28 00:05:47;;;;;;;;;;;;;;;;;;5010967;28;1307;-73
2022/11/28 00:08:14;;;;;;;;;;;;;;;;;;4993715;28;1162;-72
2022/11/28 00:10:40;;;;;;;;;;;;;;;;;;5010772;28;1072;-73
2022/11/28 00:13:06;;;;;;;;;;;;;;;;;;4992322;28;1196;-73
2022/11/28 00:15:33;;;;;;;;;;;;;;;;;;4993250;28;1407;-71
2022/11/28 00:17:59;;;;;;;;;;;;;;;;;;5010936;28;954;-72
2022/11/28 00:20:27;;;;;;;;;;;;;;;;;;4993369;28;1339;-73
2022/11/28 00:22:53;;;;;;;;;;;;;;;;;;5010038;28;1975;-72
2022/11/28 00:25:19;;;;;;;;;;;;;;;;;;4993126;28;1417;-72
2022/11/28 00:27:45;;;;;;;;;;;;;;;;;;5010882;28;988;-72
2022/11/28 00:30:12;;;;;;;;;;;;;;;;;;5006857;28;755;-72
2022/11/28 00:32:39;;;;;;;;;;;;;;;;;;4968834;28;1064;-72
2022/11/28 00:35:06;;;;;;;;;;;;;;;;;;4931017;28;1286;-71
2022/11/28 00:37:34;;;;;;;;;;;;;;;;;;4929762;28;1126;-72
2022/11/28 00:40:00;;;;;;;;;;;;;;;;;;4946284;28;1087;-72
2022/11/28 00:42:27;;;;;;;;;;;;;;;;;;4966330;28;1938;-72
2022/11/28 00:44:53;;;;;;;;;;;;;;;;;;4964443;28;1286;-71
2022/11/28 00:47:20;;;;;;;;;;;;;;;;;;4966879;28;909;-72
2022/11/28 00:49:46;;;;;;;;;;;;;;;;;;4962372;28;949;-73
2022/11/28 00:52:13;;;;;;;;;;;;;;;;;;4962375;28;984;-73
2022/11/28 00:54:41;;;;;;;;;;;;;;;;;;4964820;28;1314;-72
2022/11/28 00:57:07;;;;;;;;;;;;;;;;;;4968851;28;929;-71
2022/11/28 00:59:34;;;;;;;;;;;;;;;;;;4967916;28;894;-72
2022/11/28 01:02:00;;;;;;;;;;;;;;;;;;4970648;28;965;-72
2022/11/28 01:04:27;;;;;;;;;;;;;;;;;;4968101;28;1946;-73
2022/11/28 01:06:53;;;;;;;;;;;;;;;;;;4966135;28;921;-73
2022/11/28 01:09:21;;;;;;;;;;;;;;;;;;4959413;28;1146;-74
2022/11/28 01:11:49;;;;;;;;;;;;;;;;;;4965067;28;1024;-73
2022/11/28 01:14:16;;;;;;;;;;;;;;;;;;4968093;28;1321;-72
2022/11/28 01:16:43;;;;;;;;;;;;;;;;;;4969788;28;873;-73
2022/11/28 01:19:10;;;;;;;;;;;;;;;;;;4966364;28;1166;-73
2022/11/28 01:21:36;;;;;;;;;;;;;;;;;;4969194;28;878;-72
2022/11/28 01:24:03;;;;;;;;;;;;;;;;;;4961415;28;1930;-74
2022/11/28 01:26:30;;;;;;;;;;;;;;;;;;4961393;28;917;-74
2022/11/28 01:28:58;;;;;;;;;;;;;;;;;;4943574;28;1115;-73
2022/11/28 01:31:25;;;;;;;;;;;;;;;;;;4969121;28;914;-73
2022/11/28 01:33:52;;;;;;;;;;;;;;;;;;4967297;28;1355;-74
2022/11/28 01:36:19;;;;;;;;;;;;;;;;;;4950235;28;1245;-73
2022/11/28 01:38:45;;;;;;;;;;;;;;;;;;4969299;28;889;-73
2022/11/28 01:41:12;;;;;;;;;;;;;;;;;;4966953;28;925;-73
2022/11/28 01:43:53;;;;;;;;;;;;;;;;;;4962979;28;1993;-74
2022/11/28 01:46:21;;;;;;;;;;;;;;;;;;4963858;28;1718;-73
2022/11/28 01:48:48;;;;;;;;;;;;;;;;;;4969910;28;862;-73
2022/11/28 01:51:14;;;;;;;;;;;;;;;;;;4949217;28;1256;-73
2022/11/28 01:53:41;;;;;;;;;;;;;;;;;;4965635;28;1477;-74
2022/11/28 01:56:09;;;;;;;;;;;;;;;;;;4949374;28;1052;-73
2022/11/28 01:58:35;;;;;;;;;;;;;;;;;;4946131;28;1241;-73
2022/11/28 02:01:02;;;;;;;;;;;;;;;;;;4938882;28;1125;-73
2022/11/28 02:03:33;;;;;;;;;;;;;;;;;;4963401;28;1938;-73
2022/11/28 02:06:00;;;;;;;;;;;;;;;;;;4968446;28;1256;-73
2022/11/28 02:08:26;;;;;;;;;;;;;;;;;;4969094;28;810;-73
2022/11/28 02:10:57;;;;;;;;;;;;;;;;;;4964915;28;1248;-72
2022/11/28 02:13:27;;;;;;;;;;;;;;;;;;4967772;28;870;-73
2022/11/28 02:16:00;;;;;;;;;;;;;;;;;;4963302;28;1444;-74
2022/11/28 02:18:33;;;;;;;;;;;;;;;;;;4953985;28;1255;-74
2022/11/28 02:21:03;;;;;;;;;;;;;;;;;;4964907;28;897;-73
2022/11/28 02:23:32;;;;;;;;;;;;;;;;;;4967028;28;2009;-73
2022/11/28 02:26:15;;;;;;;;;;;;;;;;;;5008509;28;1266;-73
2022/11/28 02:29:02;;;;;;;;;;;;;;;;;;5026650;28;783;-73
2022/11/28 02:31:34;;;;;;;;;;;;;;;;;;4962119;28;1255;-73
2022/11/28 02:34:03;;;;;;;;;;;;;;;;;;4963371;28;1333;-72
2022/11/28 02:36:30;;;;;;;;;;;;;;;;;;4947064;28;912;-74
2022/11/28 02:38:58;;;;;;;;;;;;;;;;;;4965026;28;886;-72
2022/11/28 02:41:27;;;;;;;;;;;;;;;;;;4968582;28;839;-72
2022/11/28 02:43:55;;;;;;;;;;;;;;;;;;4963867;28;2003;-73
2022/11/28 02:46:22;;;;;;;;;;;;;;;;;;4948563;28;1166;-73
2022/11/28 02:48:49;;;;;;;;;;;;;;;;;;4968869;28;952;-73
2022/11/28 02:51:18;;;;;;;;;;;;;;;;;;4966521;28;921;-74
2022/11/28 02:53:45;;;;;;;;;;;;;;;;;;4958588;28;1597;-74
2022/11/28 02:56:12;;;;;;;;;;;;;;;;;;4941444;28;1465;-72
2022/11/28 02:58:38;;;;;;;;;;;;;;;;;;4968876;28;924;-72
2022/11/28 03:01:05;;;;;;;;;;;;;;;;;;4968420;28;870;-72
2022/11/28 03:03:59;;;;;;;;;;;;;;;;;;4968126;28;1938;-73
2022/11/28 03:06:30;;;;;;;;;;;;;;;;;;4910033;28;1034;-72
2022/11/28 03:09:01;;;;;;;;;;;;;;;;;;4965207;28;953;-74
2022/11/28 03:11:31;;;;;;;;;;;;;;;;;;4960074;28;893;-73
2022/11/28 03:13:59;;;;;;;;;;;;;;;;;;4962674;28;1313;-73
2022/11/28 03:16:27;;;;;;;;;;;;;;;;;;4968490;28;889;-73
2022/11/28 03:18:55;;;;;;;;;;;;;;;;;;4961444;28;1513;-73
2022/11/28 03:21:23;;;;;;;;;;;;;;;;;;4966092;28;1071;-72
2022/11/28 03:23:52;;;;;;;;;;;;;;;;;;4965386;28;1997;-73
2022/11/28 03:26:21;;;;;;;;;;;;;;;;;;4966646;28;930;-72
2022/11/28 03:28:49;;;;;;;;;;;;;;;;;;4960334;28;874;-74
2022/11/28 03:31:15;;;;;;;;;;;;;;;;;;4942427;28;1116;-72
2022/11/28 03:33:47;;;;;;;;;;;;;;;;;;4966883;28;1305;-74
2022/11/28 03:36:15;;;;;;;;;;;;;;;;;;4964172;28;1110;-72
2022/11/28 03:38:43;;;;;;;;;;;;;;;;;;4961814;28;1156;-73
2022/11/28 03:41:12;;;;;;;;;;;;;;;;;;4963575;28;1182;-73
2022/11/28 03:43:40;;;;;;;;;;;;;;;;;;4962510;28;2005;-74
2022/11/28 03:46:07;;;;;;;;;;;;;;;;;;4959991;28;964;-72
2022/11/28 03:48:35;;;;;;;;;;;;;;;;;;4957077;28;893;-73
2022/11/28 03:51:04;;;;;;;;;;;;;;;;;;4945939;28;1099;-71
2022/11/28 03:53:34;;;;;;;;;;;;;;;;;;4955750;28;1365;-73
2022/11/28 03:56:02;;;;;;;;;;;;;;;;;;4945427;28;1435;-73
2022/11/28 03:58:32;;;;;;;;;;;;;;;;;;4947587;28;843;-74
2022/11/28 04:00:59;;;;;;;;;;;;;;;;;;4946786;28;934;-72
2022/11/28 04:03:28;;;;;;;;;;;;;;;;;;4939967;28;2017;-73
2022/11/28 04:05:57;;;;;;;;;;;;;;;;;;4939428;28;1334;-73
2022/11/28 04:08:24;;;;;;;;;;;;;;;;;;4946815;28;926;-74
2022/11/28 04:10:52;;;;;;;;;;;;;;;;;;4944559;28;925;-73
2022/11/28 04:13:20;;;;;;;;;;;;;;;;;;4946907;28;972;-74
2022/11/28 04:15:51;;;;;;;;;;;;;;;;;;4945588;28;1303;-73
2022/11/28 04:18:19;;;;;;;;;;;;;;;;;;4927797;28;874;-73
2022/11/28 04:20:46;;;;;;;;;;;;;;;;;;4943095;28;949;-73
2022/11/28 04:23:13;;;;;;;;;;;;;;;;;;4940101;28;917;-73
2022/11/28 04:25:41;;;;;;;;;;;;;;;;;;4927512;28;1302;-74
2022/11/28 04:28:09;;;;;;;;;;;;;;;;;;4951859;28;901;-73
2022/11/28 04:30:35;;;;;;;;;;;;;;;;;;4951247;28;866;-73
2022/11/28 04:33:03;;;;;;;;;;;;;;;;;;4951821;28;1076;-73
2022/11/28 04:35:30;;;;;;;;;;;;;;;;;;4947614;28;1286;-72
2022/11/28 04:37:58;;;;;;;;;;;;;;;;;;4944992;28;882;-76
2022/11/28 04:40:25;;;;;;;;;;;;;;;;;;4946296;28;984;-75
2022/11/28 04:42:53;;;;;;;;;;;;;;;;;;4945069;28;1099;-74
2022/11/28 04:45:22;;;;;;;;;;;;;;;;;;4942967;28;1958;-76
2022/11/28 04:47:48;;;;;;;;;;;;;;;;;;4929836;28;1142;-76
2022/11/28 04:50:17;;;;;;;;;;;;;;;;;;4940590;28;2076;-75
2022/11/28 04:52:44;;;;;;;;;;;;;;;;;;4933111;28;1439;-73
2022/11/28 04:55:12;;;;;;;;;;;;;;;;;;4943135;28;1286;-73
2022/11/28 04:57:39;;;;;;;;;;;;;;;;;;4927787;28;1286;-75
2022/11/28 05:00:07;;;;;;;;;;;;;;;;;;4947223;28;1111;-74
2022/11/28 05:02:33;;;;;;;;;;;;;;;;;;4973977;28;1562;-75
2022/11/28 05:05:00;;;;;;;;;;;;;;;;;;4935879;28;2005;-73
2022/11/28 05:07:28;;;;;;;;;;;;;;;;;;4944355;28;1918;-75
2022/11/28 05:09:56;;;;;;;;;;;;;;;;;;4941965;28;1890;-74
2022/11/28 05:12:22;;;;;;;;;;;;;;;;;;4958092;28;1059;-74
2022/11/28 05:14:49;;;;;;;;;;;;;;;;;;5030331;28;1472;-74
2022/11/28 05:17:15;;;;;;;;;;;;;;;;;;5045312;28;1229;-74
2022/11/28 05:19:41;;;;;;;;;;;;;;;;;;5046445;28;1292;-74
2022/11/28 05:22:07;;;;;;;;;;;;;;;;;;5018719;28;1256;-74
2022/11/28 05:24:35;;;;;;;;;;;;;;;;;;5029133;28;1922;-73
2022/11/28 05:27:01;;;;;;;;;;;;;;;;;;5022775;28;1172;-73
2022/11/28 05:29:27;;;;;;;;;;;;;;;;;;5031755;28;984;-73
2022/11/28 05:31:53;;;;;;;;;;;;;;;;;;5030361;28;1420;-72
2022/11/28 05:34:20;;;;;;;;;;;;;;;;;;5031599;28;1392;-70
2022/11/28 05:36:46;;;;;;;;;;;;;;;;;;5031605;28;922;-72
2022/11/28 05:39:12;;;;;;;;;;;;;;;;;;5031574;28;790;-73
2022/11/28 05:41:40;;;;;;;;;;;;;;;;;;5030659;28;1107;-72
2022/11/28 05:44:06;;;;;;;;;;;;;;;;;;5032752;28;1914;-72
2022/11/28 05:46:32;;;;;;;;;;;;;;;;;;5032809;28;1134;-71
2022/11/28 05:48:58;;;;;;;;;;;;;;;;;;5033164;28;759;-73
2022/11/28 05:51:25;;;;;;;;;;;;;;;;;;5030508;28;1472;-72
2022/11/28 05:53:51;;;;;;;;;;;;;;;;;;5011686;28;1488;-73
2022/11/28 05:56:18;;;;;;;;;;;;;;;;;;5013236;28;1034;-73
2022/11/28 05:58:45;;;;;;;;;;;;;;;;;;5013305;28;688;-72
2022/11/28 06:01:12;;;;;;;;;;;;;;;;;;5013218;28;886;-72
2022/11/28 06:03:38;;;;;;;;;;;;;;;;;;5012015;28;1255;-72
2022/11/28 06:06:07;;;;;;;;;;;;;;;;;;5013160;28;1973;-74
2022/11/28 06:08:34;;;;;;;;;;;;;;;;;;5017290;28;1276;-74
2022/11/28 06:11:00;;;;;;;;;;;;;;;;;;5016954;28;1069;-74
2022/11/28 06:13:26;;;;;;;;;;;;;;;;;;5014566;28;1298;-73
2022/11/28 06:15:58;;;;;;;;;;;;;;;;;;5013231;28;1312;-73
2022/11/28 06:18:25;;;;;;;;;;;;;;;;;;5011618;28;1176;-73
2022/11/28 06:20:51;;;;;;;;;;;;;;;;;;4994975;28;1410;-73
2022/11/28 06:23:17;;;;;;;;;;;;;;;;;;4994030;28;1218;-73
2022/11/28 06:25:43;;;;;;;;;;;;;;;;;;5012492;28;1979;-74
2022/11/28 06:28:09;;;;;;;;;;;;;;;;;;5021650;28;1520;-73
2022/11/28 06:30:35;;;;;;;;;;;;;;;;;;5021642;28;1476;-73
2022/11/28 06:33:03;;;;;;;;;;;;;;;;;;5022704;28;1515;-74
2022/11/28 06:35:29;;;;;;;;;;;;;;;;;;5037380;28;1305;-74
2022/11/28 06:37:55;;;;;;;;;;;;;;;;;;5055804;22;3730;-79
2022/11/28 06:40:22;;;;;;;;;;;;;;;;;;5065232;28;1386;-80
2022/11/28 06:42:49;;;;;;;;;;;;;;;;;;5054246;28;1328;-79
2022/11/28 06:45:16;;;;;;;;;;;;;;;;;;5056875;28;1983;-79
2022/11/28 06:47:42;;;;;;;;;;;;;;;;;;5074053;28;1301;-79
2022/11/28 06:50:10;;;;;;;;;;;;;;;;;;5072502;28;1467;-79
2022/11/28 06:52:36;;;;;;;;;;;;;;;;;;5060502;28;1538;-79
2022/11/28 06:55:02;;;;;;;;;;;;;;;;;;5061669;28;1346;-79
2022/11/28 06:57:29;;;;;;;;;;;;;;;;;;5077084;28;1320;-80
2022/11/28 06:59:55;;;;;;;;;;;;;;;;;;5074010;28;917;-77
2022/11/28 07:02:23;;;;;;;;;;;;;;;;;;5072030;28;1321;-76
2022/11/28 07:04:50;;;;;;;;;;;;;;;;;;5054729;28;1918;-78
2022/11/28 07:07:17;;;;;;;;;;;;;;;;;;5071128;28;1602;-77
2022/11/28 07:09:43;;;;;;;;;;;;;;;;;;5068880;28;1650;-78
2022/11/28 07:12:10;;;;;;;;;;;;;;;;;;5067334;28;1376;-77
2022/11/28 07:14:36;;;;;;;;;;;;;;;;;;5049155;28;1168;-80
2022/11/28 07:17:02;;;;;;;;;;;;;;;;;;5046889;28;1279;-79
2022/11/28 07:19:28;;;;;;;;;;;;;;;;;;5056583;28;1510;-81
2022/11/28 07:21:54;;;;;;;;;;;;;;;;;;5073374;28;1306;-78
2022/11/28 07:24:22;;;;;;;;;;;;;;;;;;5076288;28;1962;-78
2022/11/28 07:26:48;;;;;;;;;;;;;;;;;;5074734;28;807;-78
2022/11/28 07:29:14;;;;;;;;;;;;;;;;;;5070372;28;1967;-78
2022/11/28 07:31:41;;;;;;;;;;;;;;;;;;5051984;28;1717;-78
2022/11/28 07:34:08;;;;;;;;;;;;;;;;;;5046816;28;1452;-78
2022/11/28 07:36:34;;;;;;;;;;;;;;;;;;5063113;28;1213;-78
2022/11/28 07:39:01;;;;;;;;;;;;;;;;;;5069980;28;1447;-78
2022/11/28 07:41:28;;;;;;;;;;;;;;;;;;5078638;28;1439;-78
2022/11/28 07:43:56;;;;;;;;;;;;;;;;;;5057387;28;1469;-78
2022/11/28 07:46:22;;;;;;;;;;;;;;;;;;5083095;28;1918;-78
2022/11/28 07:48:49;;;;;;;;;;;;;;;;;;5075445;28;1395;-80
2022/11/28 07:51:15;;;;;;;;;;;;;;;;;;5080281;28;1352;-74
2022/11/28 07:53:42;;;;;;;;;;;;;;;;;;5078231;28;1731;-78
2022/11/28 07:56:11;;;;;;;;;;;;;;;;;;5069376;28;1343;-78
2022/11/28 07:58:39;;;;;;;;;;;;;;;;;;5054757;28;1533;-77
2022/11/28 08:01:07;;;;;;;;;;;;;;;;;;5051127;28;1494;-77
2022/11/28 08:03:34;;;;;;;;;;;;;;;;;;5074374;28;1558;-76
2022/11/28 08:06:00;;;;;;;;;;;;;;;;;;5088240;28;1977;-77
2022/11/28 08:08:26;;;;;;;;;;;;;;;;;;5091457;28;1305;-77
2022/11/28 08:10:56;;;;;;;;;;;;;;;;;;5091097;28;1071;-78
2022/11/28 08:13:23;;;;;;;;;;;;;;;;;;5076664;28;1352;-79
2022/11/28 08:15:50;;;;;;;;;;;;;;;;;;5068441;28;1274;-78
2022/11/28 08:18:16;;;;;;;;;;;;;;;;;;5064285;28;1409;-77
2022/11/28 08:20:43;;;;;;;;;;;;;;;;;;5065197;28;1394;-78
2022/11/28 08:23:09;;;;;;;;;;;;;;;;;;5076105;28;1390;-78
2022/11/28 08:25:35;;;;;;;;;;;;;;;;;;5067182;28;2001;-78
2022/11/28 08:28:01;;;;;;;;;;;;;;;;;;5053512;28;1435;-79
2022/11/28 08:30:28;;;;;;;;;;;;;;;;;;5087757;28;1395;-78
2022/11/28 08:32:55;;;;;;;;;;;;;;;;;;5068089;28;1386;-78
2022/11/28 08:35:22;;;;;;;;;;;;;;;;;;5056827;28;937;-79
2022/11/28 08:37:48;;;;;;;;;;;;;;;;;;5059005;28;1328;-79
2022/11/28 08:40:14;;;;;;;;;;;;;;;;;;5072313;28;1416;-78
2022/11/28 08:42:41;;;;;;;;;;;;;;;;;;5074910;28;1113;-78
2022/11/28 08:45:07;;;;;;;;;;;;;;;;;;5074532;28;1925;-79
2022/11/28 08:47:33;;;;;;;;;;;;;;;;;;5056578;28;1419;-78
2022/11/28 08:50:01;;;;;;;;;;;;;;;;;;5069215;28;1447;-79
2022/11/28 08:52:27;;;;;;;;;;;;;;;;;;5062292;28;1338;-77
2022/11/28 08:54:54;;;;;;;;;;;;;;;;;;5074763;28;1133;-79
2022/11/28 08:57:20;;;;;;;;;;;;;;;;;;5072090;28;1511;-78
2022/11/28 08:59:46;;;;;;;;;;;;;;;;;;5071159;28;1210;-78
2022/11/28 09:02:12;;;;;;;;;;;;;;;;;;5075164;28;978;-78
2022/11/28 09:04:38;;;;;;;;;;;;;;;;;;5074865;28;1502;-77
2022/11/28 09:07:06;;;;;;;;;;;;;;;;;;5072592;28;1910;-78
2022/11/28 09:09:32;;;;;;;;;;;;;;;;;;5054151;28;1635;-78
2022/11/28 09:11:59;;;;;;;;;;;;;;;;;;5078882;28;1067;-79
2022/11/28 09:14:25;;;;;;;;;;;;;;;;;;5081464;28;1096;-79
2022/11/28 09:16:51;;;;;;;;;;;;;;;;;;5080699;28;1079;-78
2022/11/28 09:19:18;;;;;;;;;;;;;;;;;;5078079;28;1502;-77
2022/11/28 09:21:44;;;;;;;;;;;;;;;;;;5076307;28;1371;-77
2022/11/28 09:24:12;;;;;;;;;;;;;;;;;;5053396;28;2030;-80
2022/11/28 09:26:39;;;;;;;;;;;;;;;;;;5076428;28;1984;-79
2022/11/28 09:29:05;;;;;;;;;;;;;;;;;;5053398;28;1391;-79
2022/11/28 09:31:31;;;;;;;;;;;;;;;;;;5076103;28;1363;-78
2022/11/28 09:33:57;;;;;;;;;;;;;;;;;;5067620;28;1205;-78
2022/11/28 09:36:24;;;;;;;;;;;;;;;;;;5075291;28;1201;-78
2022/11/28 09:38:50;;;;;;;;;;;;;;;;;;5072561;28;1610;-79
2022/11/28 09:41:31;;;;;;;;;;;;;;;;;;5073330;28;1245;-75
2022/11/28 09:43:58;;;;;;;;;;;;;;;;;;5082048;28;1118;-79
2022/11/28 09:46:25;;;;;;;;;;;;;;;;;;5074096;28;1981;-79
2022/11/28 09:48:52;;;;;;;;;;;;;;;;;;5074822;28;1497;-78
2022/11/28 09:51:19;;;;;;;;;;;;;;;;;;5076130;28;1153;-77
2022/11/28 09:53:46;;;;;;;;;;;;;;;;;;5071179;28;1486;-79
2022/11/28 09:56:13;;;;;;;;;;;;;;;;;;5077083;28;1201;-79
2022/11/28 09:58:42;;;;;;;;;;;;;;;;;;5076390;28;1349;-78
2022/11/28 10:01:11;;;;;;;;;;;;;;;;;;5075506;28;1513;-77
2022/11/28 10:03:39;;;;;;;;;;;;;;;;;;5070831;28;1130;-78
2022/11/28 10:06:08;;;;;;;;;;;;;;;;;;5056320;28;1973;-79
2022/11/28 10:08:36;;;;;;;;;;;;;;;;;;5073839;28;1704;-78
2022/11/28 10:11:04;;;;;;;;;;;;;;;;;;5075906;28;1888;-80
2022/11/28 10:13:35;;;;;;;;;;;;;;;;;;5059981;28;1277;-80
2022/11/28 10:16:03;;;;;;;;;;;;;;;;;;5077350;28;1416;-81
2022/11/28 10:18:37;;;;;;;;;;;;;;;;;;5074666;28;1573;-81
2022/11/28 10:21:04;;;;;;;;;;;;;;;;;;5057817;28;1605;-79
2022/11/28 10:23:32;;;;;;;;;;;;;;;;;;5056966;28;1720;-80
2022/11/28 10:25:59;;;;;;;;;;;;;;;;;;5062534;28;1910;-80
2022/11/28 10:28:26;;;;;;;;;;;;;;;;;;5070333;28;1740;-80
2022/11/28 10:30:53;;;;;;;;;;;;;;;;;;5075000;28;1118;-80
2022/11/28 10:33:23;;;;;;;;;;;;;;;;;;5059092;28;1141;-80
2022/11/28 10:35:50;;;;;;;;;;;;;;;;;;5055678;28;1964;-79
2022/11/28 10:38:19;;;;;;;;;;;;;;;;;;5074285;28;1395;-80
2022/11/28 10:40:47;;;;;;;;;;;;;;;;;;5073510;28;1293;-80
2022/11/28 10:43:16;;;;;;;;;;;;;;;;;;5074098;28;668;-80
2022/11/28 10:45:44;;;;;;;;;;;;;;;;;;5075002;28;1914;-80
2022/11/28 10:48:19;;;;;;;;;;;;;;;;;;5075489;28;1313;-79
2022/11/28 10:50:49;;;;;;;;;;;;;;;;;;5074876;28;2010;-79
2022/11/28 10:53:18;;;;;;;;;;;;;;;;;;5075755;28;1221;-79
2022/11/28 10:55:45;;;;;;;;;;;;;;;;;;5079674;28;1111;-78
2022/11/28 10:58:13;;;;;;;;;;;;;;;;;;5085695;28;1467;-78
2022/11/28 11:00:39;;;;;;;;;;;;;;;;;;5085280;28;909;-79
2022/11/28 11:03:09;;;;;;;;;;;;;;;;;;5074126;28;1111;-79
2022/11/28 11:05:35;;;;;;;;;;;;;;;;;;5074874;28;1918;-79
2022/11/28 11:08:04;;;;;;;;;;;;;;;;;;5074937;28;1309;-80
2022/11/28 11:10:31;;;;;;;;;;;;;;;;;;5074867;28;866;-80
2022/11/28 11:12:58;;;;;;;;;;;;;;;;;;5073825;28;1166;-79
2022/11/28 11:15:24;;;;;;;;;;;;;;;;;;5074416;28;1157;-80
2022/11/28 11:17:51;;;;;;;;;;;;;;;;;;5074655;28;1396;-79
2022/11/28 11:20:30;;;;;;;;;;;;;;;;;;5081444;28;1126;-78
2022/11/28 11:22:57;;;;;;;;;;;;;;;;;;5082389;28;774;-78
2022/11/28 11:25:25;;;;;;;;;;;;;;;;;;5083504;28;1095;-79
2022/11/28 11:27:52;;;;;;;;;;;;;;;;;;5076923;28;2020;-79
2022/11/28 11:30:19;;;;;;;;;;;;;;;;;;5056357;28;1789;-80
2022/11/28 11:32:46;;;;;;;;;;;;;;;;;;5072709;28;1140;-79
2022/11/28 11:35:15;;;;;;;;;;;;;;;;;;5072256;28;1353;-79
2022/11/28 11:37:42;;;;;;;;;;;;;;;;;;5075416;28;1426;-80
2022/11/28 11:40:17;;;;;;;;;;;;;;;;;;5075431;28;896;-79
2022/11/28 11:42:51;;;;;;;;;;;;;;;;;;5092632;28;1055;-78
2022/11/28 11:45:24;;;;;;;;;;;;;;;;;;5074709;28;1535;-79
2022/11/28 11:47:50;;;;;;;;;;;;;;;;;;5093485;28;1977;-79
2022/11/28 11:50:17;;;;;;;;;;;;;;;;;;5093563;28;1110;-79
2022/11/28 11:52:43;;;;;;;;;;;;;;;;;;5075330;28;1966;-79
2022/11/28 11:55:11;;;;;;;;;;;;;;;;;;5052839;28;1138;-79
2022/11/28 11:57:38;;;;;;;;;;;;;;;;;;5052483;28;1316;-79
2022/11/28 12:00:07;;;;;;;;;;;;;;;;;;5040828;28;1404;-79
2022/11/28 12:02:39;;;;;;;;;;;;;;;;;;5073475;28;1770;-78
2022/11/28 12:05:09;;;;;;;;;;;;;;;;;;5070984;28;1879;-78
2022/11/28 12:07:37;;;;;;;;;;;;;;;;;;5071263;28;2011;-77
2022/11/28 12:10:03;;;;;;;;;;;;;;;;;;5051337;28;2086;-77
2022/11/28 12:12:29;;;;;;;;;;;;;;;;;;5053340;28;1693;-77
2022/11/28 12:14:56;;;;;;;;;;;;;;;;;;5052700;28;1859;-77
2022/11/28 12:17:36;;;;;;;;;;;;;;;;;;5057678;28;1688;-78
2022/11/28 12:20:05;;;;;;;;;;;;;;;;;;5055596;28;1809;-77
2022/11/28 12:22:34;;;;;;;;;;;;;;;;;;5055921;28;2045;-78
2022/11/28 12:25:03;;;;;;;;;;;;;;;;;;5064489;28;1814;-78
2022/11/28 12:27:31;;;;;;;;;;;;;;;;;;5050062;28;1914;-77
2022/11/28 12:30:01;;;;;;;;;;;;;;;;;;5058091;28;1531;-77
2022/11/28 12:32:29;;;;;;;;;;;;;;;;;;5068420;28;1747;-78
2022/11/28 12:35:05;;;;;;;;;;;;;;;;;;5052971;28;1400;-77
2022/11/28 12:37:34;;;;;;;;;;;;;;;;;;5064065;28;1425;-78
2022/11/28 12:40:03;;;;;;;;;;;;;;;;;;5065632;28;1219;-78
2022/11/28 12:42:31;;;;;;;;;;;;;;;;;;5073277;28;1250;-77
2022/11/28 12:45:07;;;;;;;;;;;;;;;;;;5073784;28;1137;-77
2022/11/28 12:47:36;;;;;;;;;;;;;;;;;;5047922;28;1971;-79
2022/11/28 12:50:07;;;;;;;;;;;;;;;;;;5061252;28;1718;-80
2022/11/28 12:52:36;;;;;;;;;;;;;;;;;;5055089;28;1365;-79
2022/11/28 12:55:05;;;;;;;;;;;;;;;;;;5054750;28;1637;-77
2022/11/28 12:57:33;;;;;;;;;;;;;;;;;;5064252;28;1480;-77
2022/11/28 13:00:00;;;;;;;;;;;;;;;;;;5087645;28;1768;-79
2022/11/28 13:02:29;;;;;;;;;;;;;;;;;;5078814;28;1163;-79
2022/11/28 13:05:04;;;;;;;;;;;;;;;;;;5069396;28;1369;-78
2022/11/28 13:07:33;;;;;;;;;;;;;;;;;;5072713;28;1906;-78
2022/11/28 13:10:01;;;;;;;;;;;;;;;;;;5057962;28;1274;-78
2022/11/28 13:12:29;;;;;;;;;;;;;;;;;;5063599;28;1971;-79
2022/11/28 13:14:56;;;;;;;;;;;;;;;;;;5085876;28;1720;-77
2022/11/28 13:17:26;;;;;;;;;;;;;;;;;;5057818;28;1598;-77
2022/11/28 13:19:54;;;;;;;;;;;;;;;;;;5061409;28;2086;-78
2022/11/28 13:22:23;;;;;;;;;;;;;;;;;;5076961;28;1170;-78
2022/11/28 13:24:51;;;;;;;;;;;;;;;;;;5095842;28;1055;-79
2022/11/28 13:27:21;;;;;;;;;;;;;;;;;;5067760;28;1902;-79
2022/11/28 13:29:49;;;;;;;;;;;;;;;;;;5100180;22;3692;-72
2022/11/28 13:32:17;;;;;;;;;;;;;;;;;;4990495;28;1497;-73
2022/11/28 13:34:43;;;;;;;;;;;;;;;;;;4999978;28;1190;-75
2022/11/28 13:37:11;;;;;;;;;;;;;;;;;;5013281;28;1123;-74
2022/11/28 13:39:39;;;;;;;;;;;;;;;;;;4995650;28;1427;-75
2022/11/28 13:42:11;;;;;;;;;;;;;;;;;;5012499;28;1137;-74
2022/11/28 13:44:41;;;;;;;;;;;;;;;;;;5013339;28;989;-76
2022/11/28 13:47:23;;;;;;;;;;;;;;;;;;5008087;28;1911;-75
2022/11/28 13:49:49;;;;;;;;;;;;;;;;;;5012926;28;1329;-75
2022/11/28 13:52:31;;;;;;;;;;;;;;;;;;5007120;28;1629;-75
2022/11/28 13:55:00;;;;;;;;;;;;;;;;;;4975967;28;1100;-75
2022/11/28 13:57:27;;;;;;;;;;;;;;;;;;4997743;28;1071;-76
2022/11/28 13:59:54;;;;;;;;;;;;;;;;;;4995016;28;1641;-77
2022/11/28 14:02:22;;;;;;;;;;;;;;;;;;5012230;28;1110;-77
2022/11/28 14:04:48;;;;;;;;;;;;;;;;;;5012766;28;1164;-73
2022/11/28 14:07:20;;;;;;;;;;;;;;;;;;5005854;28;1946;-74
2022/11/28 14:09:49;;;;;;;;;;;;;;;;;;5012301;28;1345;-75
2022/11/28 14:12:17;;;;;;;;;;;;;;;;;;5012201;28;747;-73
2022/11/28 14:15:06;;;;;;;;;;;;;;;;;;5012660;28;908;-74
2022/11/28 14:17:38;;;;;;;;;;;;;;;;;;5006091;28;1441;-75
2022/11/28 14:20:09;;;;;;;;;;;;;;;;;;5009974;28;1460;-75
2022/11/28 14:22:39;;;;;;;;;;;;;;;;;;5010763;28;822;-75
2022/11/28 14:25:09;;;;;;;;;;;;;;;;;;5009403;28;1465;-76
2022/11/28 14:27:37;;;;;;;;;;;;;;;;;;4998659;28;1903;-74
2022/11/28 14:30:06;;;;;;;;;;;;;;;;;;5011048;28;1493;-76
2022/11/28 14:32:34;;;;;;;;;;;;;;;;;;5018787;28;1186;-75
2022/11/28 14:35:00;;;;;;;;;;;;;;;;;;4992301;28;1408;-76
2022/11/28 14:37:56;;;;;;;;;;;;;;;;;;4996834;28;1249;-76
2022/11/28 14:40:49;;;;;;;;;;;;;;;;;;5009916;28;1533;-72
2022/11/28 14:43:24;;;;;;;;;;;;;;;;;;4972517;28;1549;-77
2022/11/28 14:45:53;;;;;;;;;;;;;;;;;;4994303;28;2521;-75
2022/11/28 14:48:27;;;;;;;;;;;;;;;;;;5029051;28;1973;-75
2022/11/28 14:50:54;;;;;;;;;;;;;;;;;;4993937;28;1561;-73
2022/11/28 14:53:35;;;;;;;;;;;;;;;;;;4995537;28;1541;-75
2022/11/28 14:56:11;;;;;;;;;;;;;;;;;;5011630;28;1460;-75
2022/11/28 14:58:39;;;;;;;;;;;;;;;;;;5011421;28;1511;-76
2022/11/28 15:01:05;;;;;;;;;;;;;;;;;;5011160;28;1325;-76
2022/11/28 15:03:32;;;;;;;;;;;;;;;;;;4993337;28;1266;-76
2022/11/28 15:05:59;;;;;;;;;;;;;;;;;;4997249;28;1525;-71
2022/11/28 15:08:34;;;;;;;;;;;;;;;;;;5010989;28;1910;-74
2022/11/28 15:11:03;;;;;;;;;;;;;;;;;;5011116;28;1499;-74
2022/11/28 15:13:36;;;;;;;;;;;;;;;;;;4992543;28;2089;-75
2022/11/28 15:16:04;;;;;;;;;;;;;;;;;;4994171;28;685;-74
2022/11/28 15:18:30;;;;;;;;;;;;;;;;;;4993548;28;1176;-74
2022/11/28 15:21:00;;;;;;;;;;;;;;;;;;4993521;28;1334;-74
2022/11/28 15:23:29;;;;;;;;;;;;;;;;;;5010411;28;1527;-76
2022/11/28 15:25:56;;;;;;;;;;;;;;;;;;5009714;28;1335;-74
2022/11/28 15:28:24;;;;;;;;;;;;;;;;;;4984013;28;1960;-74
2022/11/28 15:30:51;;;;;;;;;;;;;;;;;;5005115;28;1440;-74
2022/11/28 15:33:18;;;;;;;;;;;;;;;;;;5009925;28;1222;-76
2022/11/28 15:35:52;;;;;;;;;;;;;;;;;;5008789;28;1407;-75
2022/11/28 15:38:18;;;;;;;;;;;;;;;;;;5017510;28;1139;-76
2022/11/28 15:40:47;;;;;;;;;;;;;;;;;;5009928;28;1341;-76
2022/11/28 15:43:14;;;;;;;;;;;;;;;;;;4998891;28;1389;-75
2022/11/28 15:45:41;;;;;;;;;;;;;;;;;;5004872;28;1478;-75
2022/11/28 15:48:14;;;;;;;;;;;;;;;;;;5009789;28;1899;-75
2022/11/28 15:50:49;;;;;;;;;;;;;;;;;;5007836;28;1755;-76
2022/11/28 15:53:16;;;;;;;;;;;;;;;;;;4986833;28;1401;-75
2022/11/28 15:55:42;;;;;;;;;;;;;;;;;;4999667;28;1309;-76
2022/11/28 15:58:09;;;;;;;;;;;;;;;;;;4993802;28;1417;-76
2022/11/28 16:00:36;;;;;;;;;;;;;;;;;;5015004;28;1371;-76
2022/11/28 16:03:02;;;;;;;;;;;;;;;;;;4998744;28;978;-76
2022/11/28 16:05:28;;;;;;;;;;;;;;;;;;4992667;28;1132;-76
2022/11/28 16:07:56;;;;;;;;;;;;;;;;;;4977256;28;1978;-76
2022/11/28 16:10:23;;;;;;;;;;;;;;;;;;5002880;28;1407;-76
2022/11/28 16:12:49;;;;;;;;;;;;;;;;;;5009659;28;1054;-76
2022/11/28 16:15:16;;;;;;;;;;;;;;;;;;5010738;28;957;-75
2022/11/28 16:17:42;;;;;;;;;;;;;;;;;;5010873;28;949;-75
2022/11/28 16:20:18;;;;;;;;;;;;;;;;;;4993216;28;1461;-75
2022/11/28 16:22:44;;;;;;;;;;;;;;;;;;5014435;28;1123;-73
2022/11/28 16:25:13;;;;;;;;;;;;;;;;;;5014698;28;1060;-75
2022/11/28 16:27:41;;;;;;;;;;;;;;;;;;5013348;28;1906;-76
2022/11/28 16:30:22;;;;;;;;;;;;;;;;;;5009171;28;1501;-75
2022/11/28 16:32:48;;;;;;;;;;;;;;;;;;5005728;28;1436;-76
2022/11/28 16:35:24;;;;;;;;;;;;;;;;;;5022035;28;1128;-76
2022/11/28 16:37:50;;;;;;;;;;;;;;;;;;5013305;28;1467;-76
2022/11/28 16:40:19;;;;;;;;;;;;;;;;;;5021026;28;1630;-77
2022/11/28 16:42:51;;;;;;;;;;;;;;;;;;5033372;28;1107;-76
2022/11/28 16:45:19;;;;;;;;;;;;;;;;;;5033777;28;1397;-75
2022/11/28 16:47:45;;;;;;;;;;;;;;;;;;5016013;28;1989;-76
2022/11/28 16:50:16;;;;;;;;;;;;;;;;;;5024045;28;1450;-76
2022/11/28 16:52:46;;;;;;;;;;;;;;;;;;5000820;28;1254;-75
2022/11/28 16:55:31;;;;;;;;;;;;;;;;;;5007212;28;1415;-76
2022/11/28 16:58:02;;;;;;;;;;;;;;;;;;5008405;28;1487;-76
2022/11/28 17:00:28;;;;;;;;;;;;;;;;;;5024843;28;1388;-74
2022/11/28 17:02:55;;;;;;;;;;;;;;;;;;5014214;28;1447;-76
2022/11/28 17:05:21;;;;;;;;;;;;;;;;;;5008657;28;1233;-75
2022/11/28 17:07:47;;;;;;;;;;;;;;;;;;5033815;28;1914;-75
2022/11/28 17:10:13;;;;;;;;;;;;;;;;;;5034312;28;1290;-76
2022/11/28 17:12:42;;;;;;;;;;;;;;;;;;5033334;28;1127;-76